Oki, Japan

2:07 PM JST on September 03, 2015 (GMT +0900)
Miho Aero | | Change Station
CLOSE
Current Station
Airport
Location: Miho AB,
Elevation: 20 ft
Nearby Weather Stations

Elev 20 ft 35.49 °N, 133.24 °E | Updated 7 minutes ago

Mostly Cloudy
Mostly Cloudy
81 °F
Feels Like 83 °F
N
4
Wind Variable Wind from NW

Today
High -- | Low -- °F
--% Chance of Precip.
Yesterday
High -- | Low -- °F
Precip. -- in
5:39 AM 6:32 PM
Waning Gibbous, 74% visible
Pressure 29.80 in
Visibility 6.2 miles
Clouds Few 2500 ft
Scattered Clouds 4000 ft
Mostly Cloudy 12000 ft
Heat Index 83 °F
Dew Point 66 °F
Humidity 61%
Rainfall 0.00 in
Snow Depth Not available.
UV 5 out of 12
Pollen Not available.
Air Quality Not available.
Flu Activity Not available.
METAR RJOH 030500Z 31003KT 270V050 9999 FEW025 SCT040 BKN120 27/19 Q1009
Pressure 29.80 in
Visibility 6.2 miles
Clouds Few 2500 ft
Scattered Clouds 4000 ft
Mostly Cloudy 12000 ft
Heat Index 83 °F
Dew Point 66 °F
Humidity 61%
Rainfall 0.00 in
Snow Depth Not available.
UV 5 out of 12
Pollen Not available.
Air Quality Not available.
Flu Activity Not available.
METAR RJOH 030500Z 31003KT 270V050 9999 FEW025 SCT040 BKN120 27/19 Q1009

10-Day Weather Forecast

×

Almanac

Astronomy

Sep. 03, 2015 Rise Set
Actual Time
Civil Twilight
Nautical Twilight
Astronomical Twilight
Moon
Length of Visible Light
Length of Day
Tomorrow will be .
, % of the Moon is Illuminated

Today's Extremes

Country Highs Country Lows

Community

WunderPhotos

Upload Photos

1,851,914 photos uploaded!

WunderBlogs® & News

Nearby

Air Quality

  Air Quality AQ Index Pollutant
Not available.

Snow Depth

Station Depth Elevation

Earthquake Activity

City Distance Mag. Time & Date
Minimum magnitude displayed is 2.5.

Coastal Water Temperatures

Place Temperature

Stations

Nearby Weather Stations

Station Location Temp. Windchill Dew Point Humidity Wind Precip. Elev Updated Type